This is the latest recevied weather packets stored in our database for station/object AF1E. If no packets are shown the sender has not sent any weather packets the latest 10 day(s).
| Time | Temp. | Humidity | Pressure | Rain* | Wind** | Luminosity | Snow |
|---|---|---|---|---|---|---|---|
| 1777543518 | 14.44° C | 83% | 1007.6 hPa | 0 mm | - | - | - |
| 1777541118 | 14.44° C | 83% | 1008 hPa | 0 mm | - | - | - |
| 1777532737 | 15.56° C | 86% | 1006.9 hPa | 0 mm | - | - | - |
| 1777531517 | 15° C | 86% | 1006.8 hPa | 0 mm | - | - | - |
| 1777527917 | 16.67° C | 82% | 1007.8 hPa | 0 mm | - | - | - |
| 1777527317 | 16.67° C | 80% | 1007.9 hPa | 0 mm | - | - | - |
| 1777524917 | 17.22° C | 78% | 1008.3 hPa | 0 mm | - | - | - |
| 1777521317 | 18.33° C | 73% | 1007.9 hPa | 0 mm | - | - | - |
| 1777520117 | 18.33° C | 78% | 1008.2 hPa | 0 mm | - | - | - |
| 1777519537 | 18.33° C | 77% | 1008.2 hPa | 0 mm | - | - | - |
| 1777516517 | 19.44° C | 72% | 1008.2 hPa | 0 mm | - | - | - |
| 1777513517 | 21.11° C | 67% | 1007.5 hPa | 0 mm | - | - | - |
| 1777512917 | 20.56° C | 67% | 1007.4 hPa | 0 mm | - | - | - |
| 1777511717 | 21.11° C | 68% | 1007.2 hPa | 0 mm | - | - | - |
| 1777508717 | 20.56° C | 80% | 1006.6 hPa | 0 mm | - | - | - |
| 1777507517 | 21.11° C | 79% | 1006.3 hPa | 0 mm | - | - | - |
| 1777500316 | 24.44° C | 68% | 1005.8 hPa | 0 mm | - | - | - |
| 1777494916 | 25° C | 66% | 1006.4 hPa | 0 mm | - | - | - |
| 1777494316 | 25° C | 65% | 1006.4 hPa | 0 mm | - | - | - |
| 1777493116 | 25.56° C | 62% | 1006.7 hPa | 0 mm | - | - | - |
| 1777491916 | 25.56° C | 61% | 1007 hPa | 0 mm | - | - | - |
| 1777488936 | 26.11° C | 59% | 1007.5 hPa | 0 mm | - | - | - |
| 1777488316 | 26.67° C | 63% | 1007.9 hPa | 0 mm | - | - | - |
| 1777483516 | 21.67° C | 75% | 1009.5 hPa | 0 mm | - | - | - |
| 1777478716 | 17.78° C | 88% | 1010.7 hPa | 0 mm | - | - | - |
* Rain latest hour (hover to see other rain measurements)
** Current wind speed in m/s (hover to see current wind gust speed)